ESSL

Linköping City Airport

Linköping, Sweden
METAR ESSL 190720Z AUTO 35006KT 300V010 9999 OVC190/// 23/16 Q1014
Observed Flight Rules
Jul-19 @ 07:20 UTC (24 minutes ago) Visual Flight Rules
Wind Visibility Clouds
350° at 6 knots 10,000+ meters
  • Overcast at 19,000' AGL
Temperatures Readings
Current 23°C / 73°F
Dewpoint 16°C / 61°F
Humidity 65%
Altimeter 29.94" Hg
Pressure 1014 hPa
Elevation 52
METAR ESSL 190720Z AUTO 35006KT 300V010 9999 OVC190/// 23/16 Q1014
Observed Flight Rules
Jul-19 @ 07:20 UTC
(24 minutes ago)
VFR
Wind Visibility
350° at 6 knots 10,000+ meters
Clouds
  • Overcast at 19,000' AGL
Temperature Dewpoint
23°C / 73°F 16°C / 61°F
Humidity Altimeter Pressure
65% 29.94" Hg 1014 hPa